Aérodrome :
LOGIN :

S'inscrire | Disclaimer

   EN    FR    IT 

 










Légende :    VFR   VFR Marginal   IFR   IFR Intensif   IFR Très Intensif
Visi : 
Plafond : 
>= 8 km
>= 3000ft
5 à 8 km
1000 à 3000 ft
1500m à 5 km
500 à 1000 ft
800 à 1500m
200 à 500 ft
< 800m
< 200 ft
Symboles :   Orages  Brouillard  Fortes neiges  Fortes précipitations  Vent > 20 kt
SIGMETs :   Divers  Orages  Givrage  Turbulence  Onde Orograph.  Cendres Volcan.






- Altitude de l'aérodrome : 124 ft
- Code IATA : NHT


EGWU - RAF Northolt

DERNIER METAR :
  • 141450Z 27011KT CAVOK 14/03 Q1021 NOSIG RMK BLU BLU

METARs EXPIRÉS :
  • 141420Z 28009KT CAVOK 14/03 Q1021 NOSIG RMK BLU BLU
  • 141350Z 25013KT CAVOK 14/02 Q1022 NOSIG
  • 141320Z 28012G28KT CAVOK 14/02 Q1022 NOSIG RMK BLU BLU
  • 141250Z 28010KT CAVOK 13/00 Q1023 NOSIG RMK BLU BLU
  • 141220Z 27012KT CAVOK 13/00 Q1023 NOSIG RMK BLU BLU
  • 141150Z 29008KT 9999 FEW045 SCT200 13/01 Q1023 NOSIG RMK BLU BLU
  • 141120Z 28008KT 9999 FEW045 SCT200 13/01 Q1024 NOSIG RMK BLU BLU
  • 141050Z 25008KT 9999 FEW040 SCT200 12/02 Q1024 NOSIG RMK BLU BLU
  • 141020Z 26006KT 9999 FEW040 SCT200 12/02 Q1024 NOSIG RMK BLU BLU

TAF TAF EGWU
Valide du 14 à 15h jusqu'au 15 à 09h UTC


141328Z 1415/1509 26010KT 9999 FEW045
PROB40
TEMPO 1503/1506 26015G25KT 7000 SHRA SCT018
PROB30
TEMPO 1508/1509 4000 +SHRA BKN014TCU



MET'MAP, la Météo Aéronautique d'un coup d'oeil ! - Copyright ORBIFLY Décembre 2007 - Disclaimer

ORBIFLY MET'MAP TEAM :

Programmation & Développement : Alexandra Zaïnal
Sur une idée originale de : Baudouin d'Aumeries
Soutien technique & logistique : Manuel Goepfert
Assistance : Marc-Olivier Méhu




SOURCES & CREDITS :

   NOAA